Time;durP1;ratioP1;P1;durP2;ratioP2;P2;SDS_P1;SDS_P2;PMS_P1;PMS_P2;Temp;Humidity;BMP_temperature;BMP_pressure;BME280_temperature;BME280_humidity;BME280_pressure;Samples;Min_cycle;Max_cycle;Signal;HPM_P1;HPM_P2
2023/06/17 00:00:09;;;;;;;5.05;4.10;;;;;;;16.93;70.37;101302.13;6248784;23;20019;-81
2023/06/17 00:02:35;;;;;;;7.28;4.35;;;;;;;16.71;72.10;101306.13;6219337;23;20023;-79
2023/06/17 00:05:02;;;;;;;8.10;5.15;;;;;;;16.66;72.18;101306.56;6193021;23;20318;-80
2023/06/17 00:07:28;;;;;;;4.00;3.67;;;;;;;16.45;72.36;101297.59;6245203;23;20012;-80
2023/06/17 00:09:54;;;;;;;7.43;4.40;;;;;;;16.61;72.66;101305.25;6168190;23;20016;-79
2023/06/17 00:12:21;;;;;;;7.00;4.15;;;;;;;16.82;71.86;101305.94;6193751;23;20012;-80
2023/06/17 00:14:47;;;;;;;7.75;3.92;;;;;;;16.81;71.76;101306.94;6193273;23;20277;-79
2023/06/17 00:17:14;;;;;;;10.15;4.80;;;;;;;16.79;72.58;101310.88;6193514;23;20027;-79
2023/06/17 00:19:40;;;;;;;8.32;4.30;;;;;;;16.82;72.83;101305.03;6218236;23;20099;-79
2023/06/17 00:22:08;;;;;;;6.88;4.65;;;;;;;16.76;72.94;101308.41;6193434;23;20008;-80
2023/06/17 00:24:34;;;;;;;7.75;4.00;;;;;;;16.68;73.31;101284.28;6245194;23;20008;-80
2023/06/17 00:27:00;;;;;;;5.18;3.92;;;;;;;16.75;73.43;101302.00;6218745;23;20008;-80
2023/06/17 00:29:25;;;;;;;4.63;4.07;;;;;;;16.69;73.21;101297.09;6218084;23;20012;-80
2023/06/17 00:31:50;;;;;;;5.75;3.92;;;;;;;16.54;74.36;101292.06;6193370;23;20063;-80
2023/06/17 00:34:16;;;;;;;5.53;4.50;;;;;;;16.49;75.47;101299.91;6217903;23;20031;-80
2023/06/17 00:36:41;;;;;;;5.03;4.30;;;;;;;16.32;76.82;101284.09;6194108;23;20036;-80
2023/06/17 00:39:07;;;;;;;5.53;4.00;;;;;;;16.36;77.67;101291.06;6192974;23;20502;-79
2023/06/17 00:41:32;;;;;;;9.18;4.53;;;;;;;16.30;78.84;101287.00;6217970;23;20019;-79
2023/06/17 00:43:58;;;;;;;10.48;3.88;;;;;;;16.26;78.10;101293.84;6193003;23;20016;-80
2023/06/17 00:46:35;;;;;;;5.93;4.50;;;;;;;16.19;77.70;101294.59;6168330;23;20483;-79
2023/06/17 00:49:02;;;;;;;7.75;4.95;;;;;;;16.13;77.29;101290.53;6193259;23;20008;-79
2023/06/17 00:51:28;;;;;;;11.40;4.53;;;;;;;16.10;76.98;101299.09;6218408;23;20012;-80
2023/06/17 00:53:54;;;;;;;6.57;4.65;;;;;;;16.10;75.60;101283.41;6193081;23;20077;-80
2023/06/17 00:56:21;;;;;;;6.05;4.93;;;;;;;16.14;73.98;101293.13;6218793;23;20016;-80
2023/06/17 00:58:47;;;;;;;11.23;4.65;;;;;;;16.08;73.39;101287.34;6169190;23;20097;-80
2023/06/17 01:01:13;;;;;;;7.38;5.05;;;;;;;16.11;72.62;101292.56;6193044;23;20016;-80
2023/06/17 01:03:38;;;;;;;12.15;5.18;;;;;;;16.08;72.29;101282.66;6219164;23;20069;-79
2023/06/17 01:06:33;;;;;;;6.95;4.82;;;;;;;15.99;73.62;101289.09;6144104;23;20012;-80
2023/06/17 01:09:06;;;;;;;8.20;4.53;;;;;;;16.14;73.13;101283.97;6178660;23;20036;-79
2023/06/17 01:11:33;;;;;;;6.50;4.60;;;;;;;15.94;74.72;101289.53;6194233;23;20008;-79
2023/06/17 01:14:00;;;;;;;11.82;5.15;;;;;;;15.96;75.37;101281.97;6217646;23;20012;-79
2023/06/17 01:16:26;;;;;;;8.40;5.25;;;;;;;15.91;75.52;101281.53;6193322;23;20012;-79
2023/06/17 01:18:53;;;;;;;7.40;5.72;;;;;;;15.79;76.68;101280.81;6244141;23;20058;-79
2023/06/17 01:21:22;;;;;;;6.43;5.35;;;;;;;15.86;77.13;101281.09;6218203;23;20012;-79
2023/06/17 01:23:52;;;;;;;8.52;5.28;;;;;;;15.92;76.97;101280.53;6217114;23;20016;-79
2023/06/17 01:26:19;;;;;;;7.50;5.47;;;;;;;16.02;76.45;101276.88;6244101;23;20011;-80
2023/06/17 01:28:45;;;;;;;15.45;5.95;;;;;;;16.04;75.90;101283.13;6244872;23;20671;-80
2023/06/17 01:31:12;;;;;;;9.00;5.47;;;;;;;16.02;76.53;101277.75;6217878;23;20463;-80
2023/06/17 01:33:41;;;;;;;6.88;5.93;;;;;;;16.11;76.41;101273.22;6220041;23;20014;-79
2023/06/17 01:36:22;;;;;;;7.57;5.65;;;;;;;16.01;77.14;101275.13;6246168;23;20075;-80
2023/06/17 01:38:51;;;;;;;7.45;5.75;;;;;;;15.85;78.81;101279.34;6194701;23;20008;-79
2023/06/17 01:41:26;;;;;;;11.23;6.63;;;;;;;15.91;78.62;101272.38;6219271;23;20016;-79
2023/06/17 01:43:54;;;;;;;7.70;6.25;;;;;;;15.85;79.61;101275.72;6220242;23;20035;-79
2023/06/17 01:46:19;;;;;;;7.30;5.65;;;;;;;15.67;80.39;101272.78;6246469;23;20012;-79
2023/06/17 01:48:45;;;;;;;11.02;6.45;;;;;;;15.73;80.40;101278.59;6194505;23;20408;-80
2023/06/17 01:51:10;;;;;;;9.57;6.38;;;;;;;15.76;80.50;101274.72;6220153;23;20015;-79
2023/06/17 01:53:36;;;;;;;9.57;6.95;;;;;;;15.62;82.57;101275.97;6219573;23;20028;-79
2023/06/17 01:56:01;;;;;;;16.45;5.93;;;;;;;15.54;86.56;101279.44;6194058;23;20432;-79
2023/06/17 01:58:27;;;;;;;7.53;5.72;;;;;;;15.51;88.90;101281.63;6219200;23;20099;-79
2023/06/17 02:00:52;;;;;;;6.55;5.53;;;;;;;15.44;90.48;101286.84;6194950;23;20204;-79
2023/06/17 02:03:18;;;;;;;9.73;6.28;;;;;;;15.41;91.12;101271.47;6218716;23;20443;-80
2023/06/17 02:05:44;;;;;;;8.02;6.07;;;;;;;15.36;90.55;101278.41;6219767;23;20019;-80
2023/06/17 02:08:11;;;;;;;13.45;6.13;;;;;;;15.28;90.64;101269.97;6194248;23;20012;-79
2023/06/17 02:10:37;;;;;;;7.25;5.93;;;;;;;15.27;90.36;101271.84;6220004;23;20011;-79
2023/06/17 02:13:04;;;;;;;11.38;6.13;;;;;;;15.33;90.61;101275.91;6218573;23;20008;-79
2023/06/17 02:15:32;;;;;;;8.68;6.63;;;;;;;15.38;89.27;101274.50;6246942;23;20058;-80
2023/06/17 02:17:58;;;;;;;6.78;5.97;;;;;;;15.31;89.46;101269.69;6144967;23;20055;-79
2023/06/17 02:20:23;;;;;;;8.90;5.72;;;;;;;15.21;89.67;101255.88;6195149;23;20377;-80
2023/06/17 02:22:49;;;;;;;7.50;6.65;;;;;;;15.31;90.37;101270.53;6193848;23;20325;-80
2023/06/17 02:25:15;;;;;;;9.57;6.57;;;;;;;15.24;89.80;101261.97;6220052;23;20004;-80
2023/06/17 02:27:40;;;;;;;12.48;6.57;;;;;;;15.20;89.70;101268.78;6219193;23;20012;-80
2023/06/17 02:30:09;;;;;;;13.00;6.40;;;;;;;15.20;89.70;101270.66;6194660;23;20432;-79
2023/06/17 02:32:34;;;;;;;7.63;6.40;;;;;;;15.36;89.41;101267.34;6220502;23;20078;-80
2023/06/17 02:34:59;;;;;;;9.50;6.80;;;;;;;15.16;90.12;101264.56;6219780;23;20046;-80
2023/06/17 02:37:25;;;;;;;11.73;6.53;;;;;;;15.01;90.63;101260.47;6247329;23;20490;-80
2023/06/17 02:39:51;;;;;;;7.28;6.05;;;;;;;15.19;90.28;101264.28;6219144;23;20020;-80
2023/06/17 02:42:16;;;;;;;10.90;6.55;;;;;;;14.87;92.27;101261.72;6220709;23;20032;-79
2023/06/17 02:44:42;;;;;;;10.40;6.88;;;;;;;14.72;93.49;101252.09;6220438;23;20085;-80
2023/06/17 02:47:08;;;;;;;8.75;6.53;;;;;;;14.79;93.29;101267.94;6169491;23;20094;-80
2023/06/17 02:49:33;;;;;;;10.30;7.97;;;;;;;14.74;93.44;101261.97;6219858;23;20341;-80
2023/06/17 02:51:59;;;;;;;8.30;6.53;;;;;;;14.61;94.50;101253.94;6194288;23;20015;-79
2023/06/17 02:54:24;;;;;;;8.23;6.50;;;;;;;14.56;93.92;101247.03;6163982;23;20020;-79
2023/06/17 02:56:50;;;;;;;10.73;6.68;;;;;;;14.51;94.77;101248.34;6164217;23;20144;-80
2023/06/17 02:59:15;;;;;;;11.45;7.78;;;;;;;14.55;94.11;101248.06;6188870;23;20012;-79
2023/06/17 03:01:42;;;;;;;12.57;7.00;;;;;;;14.62;94.25;101254.78;6214281;23;20082;-79
2023/06/17 03:04:12;;;;;;;11.40;7.38;;;;;;;14.58;94.71;101251.41;6214139;23;20424;-79
2023/06/17 03:06:40;;;;;;;12.32;7.47;;;;;;;14.65;94.83;101243.50;6216394;23;20044;-79
2023/06/17 03:09:07;;;;;;;10.50;7.28;;;;;;;14.80;nan;101252.25;6213750;23;20071;-79
2023/06/17 03:11:32;;;;;;;10.65;7.20;;;;;;;14.74;94.49;101250.06;6213779;23;20075;-79
2023/06/17 03:13:58;;;;;;;10.15;7.82;;;;;;;14.68;96.12;101243.22;6213416;23;20043;-80
2023/06/17 03:16:24;;;;;;;13.05;6.95;;;;;;;14.53;98.29;101254.59;6214429;23;20016;-79
2023/06/17 03:18:50;;;;;;;11.00;7.20;;;;;;;14.48;98.76;101245.00;6164078;23;20013;-79
2023/06/17 03:21:15;;;;;;;10.73;7.82;;;;;;;14.29;100.00;101248.50;6214261;23;20016;-79
2023/06/17 03:23:42;;;;;;;14.95;8.20;;;;;;;14.13;100.00;101244.38;6163056;23;20470;-80
2023/06/17 03:26:09;;;;;;;11.82;8.30;;;;;;;14.22;100.00;101250.94;6165302;23;20463;-79
2023/06/17 03:28:35;;;;;;;15.98;8.55;;;;;;;14.06;100.00;101239.53;6213853;23;20012;-79
2023/06/17 03:31:02;;;;;;;11.82;8.38;;;;;;;13.97;100.00;101241.22;6188852;23;20012;-78
2023/06/17 03:33:28;;;;;;;12.77;8.05;;;;;;;13.93;100.00;101240.59;6213180;23;20020;-79
2023/06/17 03:35:54;;;;;;;12.75;8.73;;;;;;;13.82;100.00;101245.28;6215727;23;20094;-80
2023/06/17 03:38:19;;;;;;;11.65;8.68;;;;;;;13.87;100.00;101243.91;6189516;23;20017;-79
2023/06/17 03:40:45;;;;;;;8.57;7.68;;;;;;;13.83;100.00;101244.28;6213316;23;20009;-79
2023/06/17 03:43:13;;;;;;;13.48;8.15;;;;;;;13.77;100.00;101237.41;6139863;23;20012;-79
2023/06/17 03:45:39;;;;;;;14.43;8.70;;;;;;;13.98;100.00;101240.19;6164403;23;20009;-79
2023/06/17 03:48:05;;;;;;;16.30;8.30;;;;;;;14.24;100.00;101239.78;6213442;23;20383;-79
2023/06/17 03:50:31;;;;;;;11.65;8.30;;;;;;;14.30;100.00;101247.50;6212779;23;20372;-79
2023/06/17 03:52:57;;;;;;;10.02;8.18;;;;;;;14.33;100.00;101245.34;6166909;22;20104;-79
2023/06/17 03:55:23;;;;;;;11.18;7.72;;;;;;;14.20;100.00;101246.56;6218288;23;20008;-79
2023/06/17 03:57:49;;;;;;;12.20;8.40;;;;;;;14.21;100.00;101248.31;6245558;23;20009;-79
2023/06/17 04:00:15;;;;;;;12.25;8.98;;;;;;;14.02;100.00;101241.69;6244974;23;20020;-80
2023/06/17 04:02:45;;;;;;;10.70;8.70;;;;;;;13.90;100.00;101253.75;6245610;23;20004;-79
2023/06/17 04:05:12;;;;;;;12.20;8.77;;;;;;;13.87;100.00;101248.50;6194095;23;20390;-79
2023/06/17 04:07:38;;;;;;;11.18;9.10;;;;;;;13.84;100.00;101249.66;6193644;23;20016;-79
2023/06/17 04:10:10;;;;;;;20.05;9.52;;;;;;;13.75;100.00;101248.56;6218391;23;20012;-78
2023/06/17 04:12:37;;;;;;;14.82;9.52;;;;;;;13.70;100.00;101255.47;6218259;23;20392;-79
2023/06/17 04:15:06;;;;;;;9.95;8.65;;;;;;;13.90;100.00;101259.25;6245044;23;20055;-80
2023/06/17 04:17:32;;;;;;;14.45;9.00;;;;;;;14.00;100.00;101265.69;6193878;23;20012;-79
2023/06/17 04:20:05;;;;;;;11.07;9.02;;;;;;;14.08;100.00;101254.88;6244930;23;20019;-79
2023/06/17 04:22:30;;;;;;;13.43;9.65;;;;;;;14.31;100.00;101255.63;6219749;23;20012;-79
2023/06/17 04:24:56;;;;;;;13.25;8.57;;;;;;;14.36;100.00;101251.59;6193307;23;20019;-79
2023/06/17 04:27:22;;;;;;;11.20;9.57;;;;;;;14.46;100.00;101253.41;6168367;23;20016;-79
2023/06/17 04:29:48;;;;;;;12.20;9.25;;;;;;;14.63;100.00;101259.31;6193581;23;20015;-76
2023/06/17 04:32:15;;;;;;;16.33;9.68;;;;;;;14.68;100.00;101251.50;6195160;23;20016;-76
2023/06/17 04:34:47;;;;;;;15.68;9.73;;;;;;;14.86;100.00;101254.47;6201792;23;20036;-78
2023/06/17 04:37:14;;;;;;;14.13;10.30;;;;;;;14.93;100.00;101255.63;6195661;23;20008;-77
2023/06/17 04:39:42;;;;;;;17.38;10.35;;;;;;;14.91;100.00;101241.13;6221204;23;20008;-76
2023/06/17 04:42:12;;;;;;;20.73;9.70;;;;;;;14.89;100.00;101249.53;6171344;23;20281;-76
2023/06/17 04:44:38;;;;;;;19.27;10.68;;;;;;;14.83;100.00;101252.84;6223913;23;20015;-76
2023/06/17 04:47:06;;;;;;;18.58;10.75;;;;;;;14.83;100.00;101247.34;6255266;23;20431;-76
2023/06/17 04:49:38;;;;;;;13.98;10.27;;;;;;;14.63;100.00;101253.81;6231625;23;20038;-76
2023/06/17 04:52:05;;;;;;;12.73;10.25;;;;;;;14.79;100.00;101253.25;6255410;23;20030;-76
2023/06/17 04:54:31;;;;;;;15.05;12.40;;;;;;;14.91;100.00;101252.16;6228951;23;20043;-76
2023/06/17 04:56:57;;;;;;;13.13;11.52;;;;;;;14.99;100.00;101254.22;6202402;23;20012;-77
2023/06/17 04:59:22;;;;;;;24.98;13.73;;;;;;;15.20;100.00;101252.25;6202694;23;20012;-76
2023/06/17 05:01:48;;;;;;;20.17;14.75;;;;;;;15.41;100.00;101265.94;6225840;23;20023;-76
2023/06/17 05:04:13;;;;;;;21.92;13.68;;;;;;;15.45;100.00;101255.47;6228622;23;20082;-76
2023/06/17 05:06:39;;;;;;;16.98;13.95;;;;;;;15.49;100.00;101259.69;6256640;23;20036;-76
2023/06/17 05:09:04;;;;;;;29.33;13.98;;;;;;;15.63;100.00;101263.91;6229334;23;20012;-75
2023/06/17 05:11:30;;;;;;;25.67;15.57;;;;;;;15.66;100.00;101254.47;6256475;23;20250;-76
2023/06/17 05:13:55;;;;;;;24.73;15.30;;;;;;;15.80;100.00;101256.81;6203640;23;20008;-76
2023/06/17 05:16:21;;;;;;;20.38;14.38;;;;;;;15.89;100.00;101253.19;6204919;23;20008;-74
2023/06/17 05:18:46;;;;;;;19.40;15.10;;;;;;;16.22;100.00;101261.16;6176312;23;20091;-76
2023/06/17 05:21:12;;;;;;;23.52;15.27;;;;;;;16.33;100.00;101261.84;6198712;23;20528;-78
2023/06/17 05:23:37;;;;;;;18.17;15.40;;;;;;;16.50;100.00;101262.09;6194466;23;20008;-77
2023/06/17 05:26:02;;;;;;;22.23;16.02;;;;;;;16.77;100.00;101263.16;6197036;23;20030;-78
2023/06/17 05:28:28;;;;;;;21.75;15.98;;;;;;;17.00;100.00;101253.44;6223488;23;20012;-77
2023/06/17 05:30:54;;;;;;;25.58;14.95;;;;;;;17.18;99.33;101260.94;6197576;23;20027;-78
2023/06/17 05:33:19;;;;;;;16.80;13.95;;;;;;;17.41;98.45;101265.03;6250248;23;20344;-77
2023/06/17 05:35:45;;;;;;;22.73;14.57;;;;;;;17.58;95.79;101265.19;6199323;23;20035;-77
2023/06/17 05:38:10;;;;;;;18.60;14.65;;;;;;;17.87;95.15;101266.84;6249592;23;20019;-77
2023/06/17 05:40:36;;;;;;;18.77;12.90;;;;;;;18.40;91.07;101262.25;6198327;23;20031;-78
2023/06/17 05:43:01;;;;;;;19.45;13.07;;;;;;;19.15;86.76;101262.53;6197591;23;20444;-76
2023/06/17 05:45:26;;;;;;;21.05;13.85;;;;;;;18.65;86.69;101261.38;6196268;23;20008;-77
2023/06/17 05:47:52;;;;;;;14.43;12.48;;;;;;;19.79;79.62;101256.44;6193404;23;20066;-77
2023/06/17 05:50:17;;;;;;;14.88;12.25;;;;;;;19.98;75.96;101258.03;6169997;23;20079;-77
2023/06/17 05:52:45;;;;;;;19.40;13.75;;;;;;;20.39;74.62;101255.22;6245810;22;20014;-77
2023/06/17 05:55:11;;;;;;;18.48;13.43;;;;;;;21.01;69.75;101257.34;6170819;23;20050;-77
2023/06/17 05:57:36;;;;;;;26.60;14.38;;;;;;;20.81;73.60;101259.69;6192911;23;20036;-77
2023/06/17 06:00:03;;;;;;;22.67;15.80;;;;;;;20.33;74.90;101259.59;6218840;23;20016;-78
2023/06/17 06:02:29;;;;;;;17.80;16.00;;;;;;;20.12;78.37;101262.00;6219242;23;20015;-79
2023/06/17 06:04:54;;;;;;;14.68;12.02;;;;;;;21.37;69.10;101265.16;6168764;23;20075;-80
2023/06/17 06:07:19;;;;;;;16.25;11.90;;;;;;;21.87;64.92;101265.72;6193093;23;20042;-80
2023/06/17 06:09:45;;;;;;;17.65;11.93;;;;;;;21.39;66.51;101265.84;6193648;23;20039;-77
2023/06/17 06:12:10;;;;;;;16.90;10.45;;;;;;;21.39;64.98;101265.00;6246708;23;20079;-79
2023/06/17 06:14:36;;;;;;;13.60;10.80;;;;;;;22.11;61.42;101272.19;6220686;23;20103;-79
2023/06/17 06:17:03;;;;;;;15.55;10.68;;;;;;;22.49;58.27;101273.06;6194933;23;20016;-79
2023/06/17 06:19:29;;;;;;;15.80;11.65;;;;;;;21.84;63.22;101272.56;6221569;23;20016;-78
2023/06/17 06:21:54;;;;;;;19.63;12.73;;;;;;;21.55;63.09;101262.13;6221523;23;20109;-76
2023/06/17 06:24:20;;;;;;;16.52;11.73;;;;;;;21.78;62.92;101270.50;6196040;23;20015;-76
2023/06/17 06:26:45;;;;;;;13.65;11.60;;;;;;;22.18;59.39;101262.84;6194382;23;20070;-78
2023/06/17 06:29:13;;;;;;;17.55;10.80;;;;;;;22.18;60.10;101262.84;6219790;23;20046;-81
2023/06/17 06:31:42;;;;;;;15.65;11.75;;;;;;;22.25;60.66;101267.69;6227014;23;20012;-79
2023/06/17 06:34:08;;;;;;;16.98;11.20;;;;;;;23.54;55.41;101265.53;6223373;23;20004;-79
2023/06/17 06:36:33;;;;;;;14.57;10.98;;;;;;;23.39;55.40;101275.88;6246750;23;20129;-79
2023/06/17 06:38:58;;;;;;;12.55;10.27;;;;;;;23.27;55.62;101273.59;6219346;23;20004;-79
2023/06/17 06:41:24;;;;;;;13.73;10.75;;;;;;;23.53;53.43;101266.59;6224324;23;20020;-82
2023/06/17 06:43:49;;;;;;;15.23;9.88;;;;;;;24.16;50.04;101266.84;6254992;23;20048;-78
2023/06/17 06:46:15;;;;;;;10.75;9.60;;;;;;;23.95;50.46;101269.66;6230827;23;20060;-79
2023/06/17 06:48:40;;;;;;;10.23;9.23;;;;;;;23.79;51.36;101274.41;6160053;23;20008;-82
2023/06/17 06:51:06;;;;;;;10.43;9.45;;;;;;;24.25;49.13;101261.94;6205093;23;20023;-80
2023/06/17 06:53:31;;;;;;;10.23;9.13;;;;;;;24.59;47.11;101272.38;6206792;23;20039;-81
2023/06/17 06:55:57;;;;;;;9.98;8.98;;;;;;;24.65;47.88;101275.47;6230816;23;20012;-78
2023/06/17 06:58:22;;;;;;;10.65;9.00;;;;;;;24.31;47.48;101263.09;6201044;23;20008;-82
2023/06/17 07:00:48;;;;;;;9.27;8.30;;;;;;;24.87;45.67;101271.50;6262239;23;20011;-83
2023/06/17 07:03:13;;;;;;;9.80;8.55;;;;;;;25.16;44.82;101271.44;6197513;23;20495;-79
2023/06/17 07:05:38;;;;;;;11.60;8.60;;;;;;;25.18;46.43;101270.16;6219145;23;20044;-79
2023/06/17 07:08:04;;;;;;;8.60;7.70;;;;;;;25.50;44.41;101273.34;6168813;23;20044;-78
2023/06/17 07:10:30;;;;;;;11.38;7.50;;;;;;;24.47;45.85;101275.94;6218754;23;20039;-78
2023/06/17 07:12:56;;;;;;;11.77;7.70;;;;;;;24.85;45.86;101278.38;6168890;23;20012;-78
2023/06/17 07:15:21;;;;;;;10.27;7.63;;;;;;;25.13;44.61;101283.94;6170914;23;20321;-78
2023/06/17 07:17:47;;;;;;;9.88;7.65;;;;;;;26.58;41.92;101278.03;6196126;23;20012;-79
2023/06/17 07:20:12;;;;;;;10.23;7.30;;;;;;;25.07;45.69;101284.75;6193417;23;20013;-78
2023/06/17 07:22:38;;;;;;;10.45;7.38;;;;;;;25.69;44.10;101277.28;6218797;23;20383;-79
2023/06/17 07:25:04;;;;;;;11.75;7.10;;;;;;;26.02;42.85;101274.59;6219754;23;20043;-80
2023/06/17 07:27:29;;;;;;;10.13;8.10;;;;;;;25.49;44.87;101272.47;6171206;23;20023;-77
2023/06/17 07:29:54;;;;;;;10.82;8.23;;;;;;;25.74;44.08;101273.84;6221554;23;20095;-79
2023/06/17 07:32:20;;;;;;;10.35;8.70;;;;;;;25.13;45.27;101272.72;6223754;23;20044;-79
2023/06/17 07:34:46;;;;;;;9.10;8.05;;;;;;;25.78;44.45;101276.03;6227338;23;20008;-77
2023/06/17 07:37:12;;;;;;;11.35;7.63;;;;;;;26.16;43.57;101278.25;6164241;23;20011;-78
2023/06/17 07:39:38;;;;;;;10.02;8.40;;;;;;;26.16;42.00;101278.25;6236820;23;20023;-78
2023/06/17 07:42:03;;;;;;;10.70;8.43;;;;;;;26.17;41.93;101274.38;6205210;22;20008;-78
2023/06/17 07:44:29;;;;;;;12.13;8.25;;;;;;;25.76;43.45;101278.19;6155442;23;20016;-77
2023/06/17 07:46:55;;;;;;;11.70;6.53;;;;;;;26.35;40.17;101270.06;6201972;23;20012;-78
2023/06/17 07:49:20;;;;;;;10.93;8.05;;;;;;;26.30;40.96;101273.53;6225548;23;20020;-78
2023/06/17 07:51:46;;;;;;;10.95;8.10;;;;;;;25.94;40.00;101271.97;6202050;23;20004;-77
2023/06/17 07:54:11;;;;;;;8.02;6.90;;;;;;;26.41;39.36;101272.84;6226789;23;20035;-77
2023/06/17 07:56:37;;;;;;;13.45;6.82;;;;;;;27.24;37.98;101268.63;6226994;23;20020;-78
2023/06/17 07:59:02;;;;;;;10.70;7.40;;;;;;;28.34;36.63;101273.22;6177190;23;20019;-78
2023/06/17 08:01:28;;;;;;;13.50;8.13;;;;;;;26.52;38.79;101274.16;6175642;23;20309;-77
2023/06/17 08:03:53;;;;;;;8.82;7.93;;;;;;;26.38;38.49;101264.91;6175666;23;20027;-78
2023/06/17 08:06:19;;;;;;;7.95;6.95;;;;;;;26.18;39.88;101262.06;6174571;23;20616;-78
2023/06/17 08:08:45;;;;;;;8.82;7.78;;;;;;;26.58;39.05;101264.88;6199837;23;20019;-77
2023/06/17 08:11:11;;;;;;;10.32;7.03;;;;;;;28.12;36.57;101263.41;6201735;23;20103;-77
2023/06/17 08:13:37;;;;;;;8.25;7.22;;;;;;;27.89;35.55;101264.84;6250664;23;20012;-79
2023/06/17 08:16:02;;;;;;;13.95;8.20;;;;;;;28.54;34.58;101260.91;6249899;23;20074;-78
2023/06/17 08:18:28;;;;;;;10.07;6.65;;;;;;;29.34;33.78;101260.06;6198059;23;20075;-78
2023/06/17 08:20:53;;;;;;;8.43;6.65;;;;;;;28.04;35.71;101261.75;6203514;23;20020;-78
2023/06/17 08:23:20;;;;;;;12.00;6.32;;;;;;;27.86;36.00;101262.50;6174479;23;20035;-78
2023/06/17 08:25:45;;;;;;;7.25;6.13;;;;;;;27.78;36.02;101260.81;6225547;23;20032;-79
2023/06/17 08:28:11;;;;;;;10.20;6.88;;;;;;;27.48;35.56;101258.59;6226518;23;20016;-79
2023/06/17 08:30:36;;;;;;;7.45;5.63;;;;;;;27.42;33.35;101261.47;6199958;22;20021;-77
2023/06/17 08:33:02;;;;;;;6.47;5.53;;;;;;;28.11;33.57;101250.44;6185629;23;20507;-77
2023/06/17 08:35:28;;;;;;;7.13;4.25;;;;;;;28.20;32.39;101249.94;6161327;23;20439;-79
2023/06/17 08:37:53;;;;;;;5.43;4.75;;;;;;;28.69;31.16;101233.22;6176527;23;20012;-77
2023/06/17 08:40:22;;;;;;;8.98;5.43;;;;;;;28.80;32.00;101240.06;6176915;23;20059;-79
2023/06/17 08:42:57;;;;;;;9.95;6.00;;;;;;;28.78;31.38;101245.09;6175614;23;20019;-79
2023/06/17 08:45:23;;;;;;;7.55;5.40;;;;;;;27.69;32.78;101248.09;6204436;23;20004;-78
2023/06/17 08:47:48;;;;;;;9.50;5.20;;;;;;;28.42;31.41;101250.38;6185235;23;20023;-77
2023/06/17 08:50:15;;;;;;;5.88;4.40;;;;;;;28.99;31.38;101248.53;6211637;23;20012;-77
2023/06/17 08:52:42;;;;;;;10.20;4.63;;;;;;;28.12;32.74;101238.97;6212112;23;20012;-79
2023/06/17 08:55:08;;;;;;;7.03;4.40;;;;;;;29.48;31.02;101239.06;6211446;23;20024;-78
2023/06/17 08:57:35;;;;;;;5.72;4.80;;;;;;;28.77;31.21;101244.19;6213138;23;20019;-78
2023/06/17 09:00:00;;;;;;;8.27;5.63;;;;;;;29.23;30.20;101244.78;6211981;23;20017;-80
2023/06/17 09:02:26;;;;;;;5.35;4.85;;;;;;;29.14;30.62;101243.38;6211711;23;20036;-78
2023/06/17 09:04:52;;;;;;;6.25;5.00;;;;;;;28.36;31.12;101244.81;6211584;23;20012;-77
2023/06/17 09:07:18;;;;;;;7.63;4.47;;;;;;;28.80;32.01;101244.84;6163022;23;20335;-77
2023/06/17 09:09:50;;;;;;;7.75;5.57;;;;;;;27.82;33.31;101241.53;6187091;23;20017;-77
2023/06/17 09:12:15;;;;;;;8.13;4.55;;;;;;;27.89;32.56;101245.13;6213281;23;20017;-77
2023/06/17 09:14:44;;;;;;;5.88;5.05;;;;;;;29.56;30.62;101249.13;6184752;23;20020;-78
2023/06/17 09:17:10;;;;;;;4.57;3.97;;;;;;;29.67;29.82;101256.78;6211842;23;20067;-77
2023/06/17 09:19:40;;;;;;;5.60;5.10;;;;;;;29.57;29.57;101253.69;6182897;23;20027;-78
2023/06/17 09:22:06;;;;;;;5.65;4.05;;;;;;;29.45;30.52;101252.75;6211617;23;20452;-77
2023/06/17 09:24:31;;;;;;;5.55;3.50;;;;;;;29.47;29.44;101251.44;6210422;23;20019;-78
2023/06/17 09:26:57;;;;;;;5.18;3.35;;;;;;;28.58;30.88;101245.28;6210327;23;20091;-77
2023/06/17 09:29:22;;;;;;;10.27;3.45;;;;;;;28.50;30.20;101249.22;6142623;23;20023;-76
2023/06/17 09:31:53;;;;;;;6.32;4.13;;;;;;;28.71;32.15;101250.78;6190676;23;20338;-77
2023/06/17 09:34:21;;;;;;;5.20;4.53;;;;;;;28.45;32.97;101240.63;6217048;23;20012;-77
2023/06/17 09:36:51;;;;;;;4.75;4.13;;;;;;;29.05;32.09;101245.63;6215425;23;20323;-77
2023/06/17 09:39:18;;;;;;;6.05;3.45;;;;;;;29.05;31.72;101236.31;6241011;23;20011;-78
2023/06/17 09:41:44;;;;;;;8.82;3.00;;;;;;;29.16;31.95;101241.16;6237339;23;20016;-79
2023/06/17 09:44:11;;;;;;;5.68;3.08;;;;;;;29.42;30.93;101244.78;6247598;23;20322;-78
2023/06/17 09:46:46;;;;;;;7.18;3.10;;;;;;;29.17;31.01;101245.69;6243519;23;20039;-79
2023/06/17 09:49:15;;;;;;;3.88;2.97;;;;;;;29.08;30.97;101235.84;6247040;23;20043;-79
2023/06/17 09:51:41;;;;;;;3.65;3.15;;;;;;;28.87;31.57;101240.84;6227816;23;20004;-78
2023/06/17 09:54:07;;;;;;;7.18;3.35;;;;;;;29.10;31.02;101239.28;6246090;23;20016;-80
2023/06/17 09:56:34;;;;;;;11.65;4.80;;;;;;;29.63;30.02;101232.09;6254858;22;20018;-80
2023/06/17 09:59:00;;;;;;;3.63;3.33;;;;;;;29.85;30.22;101240.94;6249834;23;20420;-78
2023/06/17 10:01:30;;;;;;;7.45;3.45;;;;;;;29.47;31.60;101236.47;6223314;23;20008;-79
2023/06/17 10:04:02;;;;;;;4.50;3.33;;;;;;;29.03;32.19;101232.88;6246310;23;20077;-79
2023/06/17 10:06:32;;;;;;;;;;;;;;;29.12;32.17;101232.31;6247464;23;20028;-79
2023/06/17 10:08:57;;;;;;;5.78;3.90;;;;;;;29.22;30.58;101234.63;6246255;23;19903;-79
2023/06/17 10:11:25;;;;;;;4.57;3.50;;;;;;;30.47;29.81;101229.28;6247353;23;20009;-79
2023/06/17 10:14:11;;;;;;;5.20;3.70;;;;;;;30.49;29.65;101232.72;6246059;23;20008;-80
2023/06/17 10:16:41;;;;;;;5.60;3.70;;;;;;;29.58;30.93;101226.31;6220421;23;20008;-78
2023/06/17 10:19:10;;;;;;;4.03;3.60;;;;;;;30.07;29.82;101229.91;6249350;22;20004;-79
2023/06/17 10:21:42;;;;;;;7.00;3.65;;;;;;;30.13;29.40;101231.78;6249531;23;20019;-79
2023/06/17 10:24:08;;;;;;;6.30;3.53;;;;;;;29.23;30.76;101225.03;6246202;23;20012;-79
2023/06/17 10:26:34;;;;;;;4.43;3.42;;;;;;;29.53;30.44;101229.84;6247973;22;20442;-79
2023/06/17 10:29:08;;;;;;;4.10;3.45;;;;;;;29.51;30.56;101224.44;6222352;22;20016;-79
2023/06/17 10:31:39;;;;;;;5.75;3.63;;;;;;;29.48;30.24;101224.94;6277718;22;20335;-79
2023/06/17 10:34:05;;;;;;;7.43;3.83;;;;;;;30.01;28.82;101216.78;6251673;22;20010;-79
2023/06/17 10:36:33;;;;;;;5.40;3.83;;;;;;;29.75;28.86;101216.06;6225598;22;20103;-79
2023/06/17 10:39:12;;;;;;;3.53;3.22;;;;;;;29.74;29.37;101219.97;6226812;22;20011;-79
2023/06/17 10:41:37;;;;;;;8.85;4.13;;;;;;;30.46;29.27;101219.06;6251141;22;20399;-79
2023/06/17 10:44:34;;;;;;;5.78;3.97;;;;;;;29.69;29.20;101211.38;6251319;22;20011;-79
2023/06/17 10:47:14;;;;;;;4.32;3.20;;;;;;;30.01;28.17;101205.50;6250991;22;20008;-80
2023/06/17 10:49:40;;;;;;;3.08;2.60;;;;;;;29.66;29.81;101203.38;6228162;22;20020;-80
2023/06/17 10:52:11;;;;;;;2.72;2.53;;;;;;;30.42;27.21;101206.56;6253414;22;20015;-80
2023/06/17 10:55:03;;;;;;;8.10;2.78;;;;;;;29.25;28.65;101205.91;6253774;22;20343;-81
2023/06/17 10:57:35;;;;;;;6.93;2.92;;;;;;;29.96;27.06;101197.75;6251437;22;20007;-80
2023/06/17 11:00:08;;;;;;;2.80;2.45;;;;;;;29.88;28.47;101196.13;6253874;22;20092;-81
2023/06/17 11:02:40;;;;;;;6.85;2.47;;;;;;;29.88;27.55;101190.47;6257956;22;20037;-80
2023/06/17 11:05:07;;;;;;;4.45;2.40;;;;;;;30.39;26.58;101201.38;6284109;22;20069;-79
2023/06/17 11:07:33;;;;;;;4.60;2.60;;;;;;;30.56;26.33;101193.00;6231300;22;20062;-79
2023/06/17 11:09:59;;;;;;;4.80;3.05;;;;;;;30.34;26.98;101195.56;6232166;22;20003;-79
2023/06/17 11:12:25;;;;;;;3.15;2.78;;;;;;;30.72;26.35;101188.59;6257769;22;20061;-79
2023/06/17 11:14:50;;;;;;;4.55;2.55;;;;;;;30.16;26.36;101196.56;6206113;22;20433;-79
2023/06/17 11:17:15;;;;;;;2.40;2.17;;;;;;;29.80;25.78;101187.16;6256545;22;20104;-79